createdAt,value
2018-06-14T00:01:00.558Z,44.5
2018-06-14T00:02:09.750Z,44.4
2018-06-14T00:03:19.161Z,44.7
2018-06-14T00:04:28.307Z,44.79
2018-06-14T00:05:37.737Z,44.31
2018-06-14T00:06:46.649Z,44.31
2018-06-14T00:07:55.816Z,44.4
2018-06-14T00:09:05.518Z,44.5
2018-06-14T00:10:14.940Z,44.5
2018-06-14T00:11:24.604Z,44.31
2018-06-14T00:12:34.286Z,44.5
2018-06-14T00:13:43.717Z,44.31
2018-06-14T00:14:53.126Z,44.21
2018-06-14T00:16:02.801Z,44.31
2018-06-14T00:17:12.211Z,44.21
2018-06-14T00:18:21.405Z,44.6
2018-06-14T00:19:31.109Z,44.31
2018-06-14T00:20:40.009Z,44.5
2018-06-14T00:21:49.687Z,44.5
2018-06-14T00:22:58.857Z,44.31
2018-06-14T00:24:07.751Z,44.5
2018-06-14T00:25:16.913Z,44.31
2018-06-14T00:26:26.316Z,44.4
2018-06-14T00:27:35.742Z,44.4
2018-06-14T00:28:45.170Z,44.4
2018-06-14T00:29:54.341Z,44.4
2018-06-14T00:31:03.494Z,44.4
2018-06-14T00:32:12.650Z,44.4
2018-06-14T00:33:21.810Z,44.31
2018-06-14T00:34:30.978Z,44.31
2018-06-14T00:35:40.140Z,44.31
2018-06-14T00:36:49.304Z,44.4
2018-06-14T00:37:58.978Z,44.4
2018-06-14T00:39:08.387Z,44.4
2018-06-14T00:40:18.057Z,44.4
2018-06-14T00:41:27.733Z,44.31
2018-06-14T00:42:36.906Z,44.31
2018-06-14T00:43:46.583Z,44.5
2018-06-14T00:44:55.989Z,44.21
2018-06-14T00:46:05.713Z,44.4
2018-06-14T00:47:15.082Z,44.31
2018-06-14T00:48:24.530Z,44.31
2018-06-14T00:49:33.965Z,44.31
2018-06-14T00:50:43.630Z,44.31
2018-06-14T00:51:53.053Z,44.21
2018-06-14T00:53:02.213Z,44.31
2018-06-14T00:54:11.880Z,44.4
2018-06-14T00:55:21.310Z,44.31
2018-06-14T00:56:30.456Z,44.31
2018-06-14T00:57:39.857Z,44.31
2018-06-14T00:58:49.272Z,44.4
2018-06-14T00:59:58.943Z,44.31
2018-06-14T01:01:07.835Z,44.31
2018-06-14T01:02:17.311Z,44.4
2018-06-14T01:03:26.999Z,44.4
2018-06-14T01:04:36.400Z,44.4
2018-06-14T01:05:45.828Z,44.4
2018-06-14T01:06:55.238Z,44.31
2018-06-14T01:08:04.166Z,44.31
2018-06-14T01:09:13.574Z,44.21
2018-06-14T01:10:23.006Z,44.31
2018-06-14T01:11:32.411Z,44.4
2018-06-14T01:12:41.836Z,44.21
2018-06-14T01:13:51.005Z,44.4
2018-06-14T01:15:00.173Z,44.21
2018-06-14T01:16:09.862Z,44.31
2018-06-14T01:17:19.031Z,44.21
2018-06-14T01:18:28.951Z,44.4
2018-06-14T01:19:38.875Z,44.31
2018-06-14T01:20:48.291Z,44.31
2018-06-14T01:21:57.452Z,44.31
2018-06-14T01:23:06.918Z,44.21
2018-06-14T01:24:16.349Z,44.31
2018-06-14T01:25:25.501Z,44.21
2018-06-14T01:26:34.400Z,44.31
2018-06-14T01:27:43.826Z,44.31
2018-06-14T01:28:52.987Z,44.31
2018-06-14T01:30:02.153Z,44.31
2018-06-14T01:31:11.321Z,44.31
2018-06-14T01:32:21.005Z,44.31
2018-06-14T01:33:30.437Z,44.21
2018-06-14T01:34:40.149Z,44.31
2018-06-14T01:35:49.823Z,44.21
2018-06-14T01:36:59.230Z,44.12
2018-06-14T01:38:08.149Z,44.21
2018-06-14T01:39:17.583Z,44.31
2018-06-14T01:40:26.596Z,44.31
2018-06-14T01:41:36.059Z,44.31
2018-06-14T01:42:46.155Z,44.21
2018-06-14T01:43:55.577Z,44.12
2018-06-14T01:45:05.021Z,44.21
2018-06-14T01:46:14.966Z,44.12
2018-06-14T01:47:23.875Z,44.31
2018-06-14T01:48:33.278Z,44.31
2018-06-14T01:49:42.700Z,44.21
2018-06-14T01:50:52.125Z,44.4
2018-06-14T01:52:01.536Z,44.4
2018-06-14T01:53:10.961Z,44.21
2018-06-14T01:54:20.626Z,44.31
2018-06-14T01:55:30.300Z,44.21
2018-06-14T01:56:39.278Z,44.21
2018-06-14T01:57:48.705Z,44.31
2018-06-14T01:58:57.857Z,44.21
2018-06-14T02:00:07.630Z,44.21
2018-06-14T02:01:17.291Z,44.4
2018-06-14T02:02:26.182Z,44.31
2018-06-14T02:03:36.122Z,44.21
2018-06-14T02:04:45.335Z,44.21
2018-06-14T02:05:54.005Z,44.21
2018-06-14T02:07:03.687Z,44.4
2018-06-14T02:08:12.834Z,44.21
2018-06-14T02:09:22.009Z,44.12
2018-06-14T02:10:31.177Z,44.12
2018-06-14T02:11:40.583Z,44.12
2018-06-14T02:12:49.751Z,44.21
2018-06-14T02:13:59.179Z,44.31
2018-06-14T02:15:08.101Z,44.12
2018-06-14T02:16:17.841Z,44.12
2018-06-14T02:17:27.258Z,44.12
2018-06-14T02:18:36.691Z,44.12
2018-06-14T02:19:45.859Z,44.12
2018-06-14T02:20:54.775Z,44.31
2018-06-14T02:22:03.942Z,44.29
2018-06-14T02:23:12.914Z,44.09
2018-06-14T02:24:22.116Z,44.21
2018-06-14T02:25:31.311Z,44.02
2018-06-14T02:26:40.992Z,44.19
2018-06-14T02:27:50.181Z,44.29
2018-06-14T02:28:59.359Z,44.21
2018-06-14T02:30:08.791Z,44.19
2018-06-14T02:31:18.241Z,44.19
2018-06-14T02:32:27.420Z,44.5
2018-06-14T02:33:37.079Z,44.12
2018-06-14T02:34:46.236Z,44.5
2018-06-14T02:35:55.647Z,44.21
2018-06-14T02:37:05.327Z,44.09
2018-06-14T02:38:15.269Z,44.38
2018-06-14T02:39:25.217Z,43.99
2018-06-14T02:40:34.377Z,44.12
2018-06-14T02:41:43.826Z,44.5
2018-06-14T02:42:53.514Z,44.09
2018-06-14T02:44:02.927Z,44.48
2018-06-14T02:45:12.350Z,44.48
2018-06-14T02:46:21.535Z,44.31
2018-06-14T02:47:31.228Z,44.09
2018-06-14T02:48:40.919Z,44.38
2018-06-14T02:49:50.337Z,44.4
2018-06-14T02:50:59.756Z,44.31
2018-06-14T02:52:08.929Z,44.21
2018-06-14T02:53:18.606Z,44.48
2018-06-14T02:54:28.545Z,44.48
2018-06-14T02:55:37.451Z,44.57
2018-06-14T02:56:47.135Z,44.21
2018-06-14T02:57:56.322Z,44.29
2018-06-14T02:59:05.486Z,44.31
2018-06-14T03:00:14.658Z,44.48
2018-06-14T03:01:24.074Z,44.6
2018-06-14T03:02:33.235Z,44.4
2018-06-14T03:03:42.675Z,44.29
2018-06-14T03:04:52.107Z,44.38
2018-06-14T03:06:01.277Z,43.9
2018-06-14T03:07:10.692Z,44.29
2018-06-14T03:08:20.156Z,44.31
2018-06-14T03:09:29.830Z,44.12
2018-06-14T03:10:39.772Z,44.12
2018-06-14T03:11:49.467Z,44.48
2018-06-14T03:12:58.364Z,44.09
2018-06-14T03:14:07.516Z,44.09
2018-06-14T03:15:16.961Z,44.09
2018-06-14T03:16:26.192Z,44.09
2018-06-14T03:17:36.123Z,44.38
2018-06-14T03:18:45.545Z,44.31
2018-06-14T03:19:54.705Z,44.19
2018-06-14T03:21:04.142Z,44.09
2018-06-14T03:22:13.302Z,44.12
2018-06-14T03:23:22.787Z,44.09
2018-06-14T03:24:32.511Z,44.09
2018-06-14T03:25:41.923Z,44.31
2018-06-14T03:26:50.556Z,44.12
2018-06-14T03:27:59.962Z,44.09
2018-06-14T03:29:09.642Z,44.31
2018-06-14T03:30:19.052Z,44.29
2018-06-14T03:31:28.479Z,44.09
2018-06-14T03:32:38.185Z,44.02
2018-06-14T03:33:47.848Z,44.12
2018-06-14T03:34:57.263Z,44.31
2018-06-14T03:36:06.670Z,44.29
2018-06-14T03:37:16.367Z,44.09
2018-06-14T03:38:25.802Z,44.21
2018-06-14T03:39:35.225Z,44.12
2018-06-14T03:40:45.030Z,44.12
2018-06-14T03:41:54.787Z,44.21
2018-06-14T03:43:03.686Z,44.12
2018-06-14T03:44:13.349Z,44.21
2018-06-14T03:45:23.014Z,44.09
2018-06-14T03:46:31.969Z,44.19
2018-06-14T03:47:41.476Z,44.09
2018-06-14T03:48:50.631Z,44.21
2018-06-14T03:49:59.797Z,44.19
2018-06-14T03:51:08.968Z,44.19
2018-06-14T03:52:18.624Z,43.99
2018-06-14T03:53:28.049Z,44.21
2018-06-14T03:54:37.989Z,44.19
2018-06-14T03:55:47.146Z,44.19
2018-06-14T03:56:56.558Z,44.09
2018-06-14T03:58:06.486Z,44.21
2018-06-14T03:59:15.369Z,44.19
2018-06-14T04:00:24.785Z,44.38
2018-06-14T04:01:34.456Z,44.19
2018-06-14T04:02:43.098Z,44.29
2018-06-14T04:03:52.527Z,44.21
2018-06-14T04:05:02.356Z,44.09
2018-06-14T04:06:11.764Z,44.19
2018-06-14T04:07:20.777Z,44.09
2018-06-14T04:08:30.467Z,44.21
2018-06-14T04:09:39.892Z,44.19
2018-06-14T04:10:49.322Z,44.19
2018-06-14T04:11:58.981Z,44.29
2018-06-14T04:13:08.403Z,44.19
2018-06-14T04:14:17.832Z,44.31
2018-06-14T04:15:27.036Z,44.31
2018-06-14T04:16:36.956Z,44.19
2018-06-14T04:17:45.863Z,44.19
2018-06-14T04:18:55.294Z,44.19
2018-06-14T04:20:04.715Z,44.19
2018-06-14T04:21:14.145Z,44.19
2018-06-14T04:22:24.062Z,44.29
2018-06-14T04:23:33.485Z,44.29
2018-06-14T04:24:42.405Z,44.29
2018-06-14T04:25:51.819Z,44.29
2018-06-14T04:27:01.238Z,44.19
2018-06-14T04:28:10.408Z,44.29
2018-06-14T04:29:20.087Z,44.29
2018-06-14T04:30:29.782Z,44.29
2018-06-14T04:31:39.690Z,44.09
2018-06-14T04:32:49.353Z,44.19
2018-06-14T04:33:58.837Z,44.29
2018-06-14T04:35:08.777Z,44.09
2018-06-14T04:36:17.942Z,44.29
2018-06-14T04:37:27.618Z,44.29
2018-06-14T04:38:37.026Z,44.19
2018-06-14T04:39:46.195Z,44.29
2018-06-14T04:40:55.600Z,44.29
2018-06-14T04:42:05.013Z,44.19
2018-06-14T04:43:14.220Z,44.29
2018-06-14T04:44:23.634Z,44.29
2018-06-14T04:45:32.791Z,44.29
2018-06-14T04:46:42.464Z,44.19
2018-06-14T04:47:51.906Z,44.29
2018-06-14T04:49:01.341Z,43.99
2018-06-14T04:50:10.759Z,44.19
2018-06-14T04:51:20.434Z,43.9
2018-06-14T04:52:29.591Z,44.19
2018-06-14T04:53:38.776Z,44.38
2018-06-14T04:54:48.445Z,44.38
2018-06-14T04:55:57.869Z,44.38
2018-06-14T04:57:07.037Z,44.38
2018-06-14T04:58:16.215Z,44.38
2018-06-14T04:59:25.916Z,43.9
2018-06-14T05:00:35.337Z,43.9
2018-06-14T05:01:44.031Z,43.8
2018-06-14T05:02:53.700Z,43.8
2018-06-14T05:04:03.387Z,43.9
2018-06-14T05:05:12.824Z,43.9
2018-06-14T05:06:22.517Z,44.09
2018-06-14T05:07:31.680Z,43.99
2018-06-14T05:08:40.847Z,43.9
2018-06-14T05:09:50.764Z,43.9
2018-06-14T05:11:00.177Z,43.9
2018-06-14T05:12:09.847Z,44.09
2018-06-14T05:13:19.554Z,43.99
2018-06-14T05:14:29.222Z,43.99
2018-06-14T05:15:38.370Z,43.9
2018-06-14T05:16:48.314Z,43.9
2018-06-14T05:17:57.480Z,43.9
2018-06-14T05:19:06.909Z,43.8
2018-06-14T05:20:16.583Z,44.09
2018-06-14T05:21:26.516Z,43.99
2018-06-14T05:22:35.982Z,43.99
2018-06-14T05:23:45.178Z,43.99
2018-06-14T05:24:54.342Z,43.99
2018-06-14T05:26:03.045Z,43.99
2018-06-14T05:27:12.463Z,43.99
2018-06-14T05:28:21.632Z,44.09
2018-06-14T05:29:31.318Z,44.09
2018-06-14T05:30:40.978Z,43.99
2018-06-14T05:31:50.393Z,43.99
2018-06-14T05:33:00.074Z,43.99
2018-06-14T05:34:09.280Z,43.9
2018-06-14T05:35:18.458Z,43.99
2018-06-14T05:36:27.880Z,43.9
2018-06-14T05:37:37.302Z,43.99
2018-06-14T05:38:45.952Z,43.99
2018-06-14T05:39:54.888Z,43.8
2018-06-14T05:41:04.628Z,43.8
2018-06-14T05:42:14.467Z,43.9
2018-06-14T05:43:24.378Z,44.09
2018-06-14T05:44:33.915Z,44.09
2018-06-14T05:45:43.773Z,43.99
2018-06-14T05:46:52.698Z,44.09
2018-06-14T05:48:01.861Z,43.99
2018-06-14T05:49:11.538Z,43.8
2018-06-14T05:50:21.286Z,43.9
2018-06-14T05:51:30.445Z,43.9
2018-06-14T05:52:39.866Z,43.9
2018-06-14T05:53:49.532Z,43.9
2018-06-14T05:54:58.957Z,43.9
2018-06-14T05:56:07.685Z,43.9
2018-06-14T05:57:16.843Z,43.9
2018-06-14T05:58:25.730Z,43.9
2018-06-14T05:59:35.418Z,43.9
2018-06-14T06:00:44.846Z,43.9
2018-06-14T06:01:54.009Z,43.99
2018-06-14T06:03:03.165Z,44.19
2018-06-14T06:04:12.837Z,44.19
2018-06-14T06:05:22.275Z,44.19
2018-06-14T06:06:31.941Z,44.19
2018-06-14T06:07:41.115Z,44.19
2018-06-14T06:08:50.548Z,44.19
2018-06-14T06:09:59.974Z,44.19
2018-06-14T06:11:09.388Z,44.29
2018-06-14T06:12:18.848Z,43.99
2018-06-14T06:13:27.510Z,43.99
2018-06-14T06:14:36.687Z,43.99
2018-06-14T06:15:46.108Z,43.71
2018-06-14T06:16:55.788Z,43.61
2018-06-14T06:18:05.748Z,43.9
2018-06-14T06:19:15.186Z,43.61
2018-06-14T06:20:24.346Z,43.32
2018-06-14T06:21:34.049Z,43.71
2018-06-14T06:22:43.227Z,43.41
2018-06-14T06:23:52.631Z,43.71
2018-06-14T06:25:02.323Z,43.51
2018-06-14T06:26:12.095Z,43.71
2018-06-14T06:27:21.457Z,43.51
2018-06-14T06:28:31.397Z,43.71
2018-06-14T06:29:41.074Z,43.9
2018-06-14T06:30:50.786Z,43.71
2018-06-14T06:32:00.744Z,43.71
2018-06-14T06:33:10.258Z,43.71
2018-06-14T06:34:20.015Z,43.71
2018-06-14T06:35:29.436Z,43.71
2018-06-14T06:36:38.883Z,43.71
2018-06-14T06:37:48.577Z,43.9
2018-06-14T06:38:57.827Z,43.71
2018-06-14T06:40:07.505Z,43.41
2018-06-14T06:41:16.674Z,43.71
2018-06-14T06:42:26.391Z,43.51
2018-06-14T06:43:35.821Z,43.71
2018-06-14T06:44:45.275Z,43.51
2018-06-14T06:45:54.966Z,43.71
2018-06-14T06:47:04.137Z,43.61
2018-06-14T06:48:13.072Z,43.61
2018-06-14T06:49:22.506Z,43.61
2018-06-14T06:50:31.924Z,43.61
2018-06-14T06:51:41.104Z,43.71
2018-06-14T06:52:50.527Z,43.71
2018-06-14T06:53:59.751Z,43.61
2018-06-14T06:55:09.452Z,43.71
2018-06-14T06:56:19.040Z,43.44
2018-06-14T06:57:28.718Z,43.71
2018-06-14T06:58:38.253Z,43.71
2018-06-14T06:59:47.819Z,43.71
2018-06-14T07:00:57.268Z,43.8
2018-06-14T07:02:06.711Z,43.44
2018-06-14T07:03:16.154Z,43.8
2018-06-14T07:04:25.339Z,43.71
2018-06-14T07:05:34.511Z,43.61
2018-06-14T07:06:44.194Z,43.61
2018-06-14T07:07:53.373Z,43.61
2018-06-14T07:09:02.792Z,43.61
2018-06-14T07:10:12.246Z,43.73
2018-06-14T07:11:21.683Z,43.61
2018-06-14T07:12:31.574Z,43.63
2018-06-14T07:13:40.751Z,43.99
2018-06-14T07:14:50.174Z,43.61
2018-06-14T07:15:59.587Z,43.9
2018-06-14T07:17:09.056Z,43.73
2018-06-14T07:18:18.213Z,43.61
2018-06-14T07:19:27.115Z,43.71
2018-06-14T07:20:36.538Z,43.73
2018-06-14T07:21:45.791Z,43.61
2018-06-14T07:22:55.209Z,44.02
2018-06-14T07:24:04.896Z,43.63
2018-06-14T07:25:14.322Z,43.63
2018-06-14T07:26:24.251Z,43.92
2018-06-14T07:27:33.684Z,43.92
2018-06-14T07:28:43.484Z,43.73
2018-06-14T07:29:52.912Z,44.02
2018-06-14T07:31:02.621Z,43.71
2018-06-14T07:32:11.792Z,44.02
2018-06-14T07:33:21.218Z,44.31
2018-06-14T07:34:30.389Z,44.02
2018-06-14T07:35:39.836Z,43.99
2018-06-14T07:36:49.302Z,44.31
2018-06-14T07:37:58.522Z,44.21
2018-06-14T07:39:07.951Z,44.19
2018-06-14T07:40:17.429Z,44.21
2018-06-14T07:41:27.035Z,43.99
2018-06-14T07:42:36.794Z,44.29
2018-06-14T07:43:46.222Z,44.21
2018-06-14T07:44:55.442Z,43.8
2018-06-14T07:46:05.157Z,44.21
2018-06-14T07:47:14.567Z,44.21
2018-06-14T07:48:24.238Z,44.09
2018-06-14T07:49:33.139Z,44.19
2018-06-14T07:50:42.309Z,44.21
2018-06-14T07:51:51.990Z,44.21
2018-06-14T07:53:01.143Z,44.29
2018-06-14T07:54:10.626Z,44.19
2018-06-14T07:55:20.553Z,44.21
2018-06-14T07:56:29.730Z,44.19
2018-06-14T07:57:38.908Z,44.29
2018-06-14T07:58:48.338Z,44.12
2018-06-14T07:59:58.350Z,44.12
2018-06-14T08:01:08.286Z,44.19
2018-06-14T08:02:17.462Z,44.19
2018-06-14T08:03:26.960Z,44.21
2018-06-14T08:04:36.655Z,44.21
2018-06-14T08:05:46.360Z,44.09
2018-06-14T08:06:55.792Z,44.09
2018-06-14T08:08:05.212Z,44.19
2018-06-14T08:09:14.386Z,44.19
2018-06-14T08:10:23.812Z,44.09
2018-06-14T08:11:33.754Z,44.19
2018-06-14T08:12:43.281Z,44.19
2018-06-14T08:13:53.061Z,44.12
2018-06-14T08:15:02.496Z,44.19
2018-06-14T08:16:11.413Z,44.21
2018-06-14T08:17:20.582Z,44.09
2018-06-14T08:18:30.278Z,44.21
2018-06-14T08:19:39.725Z,44.12
2018-06-14T08:20:49.159Z,44.19
2018-06-14T08:21:58.084Z,43.9
2018-06-14T08:23:07.262Z,44.02
2018-06-14T08:24:16.466Z,43.9
2018-06-14T08:25:26.249Z,43.9
2018-06-14T08:26:35.428Z,44.02
2018-06-14T08:27:44.090Z,43.99
2018-06-14T08:28:53.295Z,43.9
2018-06-14T08:30:02.465Z,44.02
2018-06-14T08:31:11.899Z,43.99
2018-06-14T08:32:20.814Z,43.99
2018-06-14T08:33:29.989Z,43.9
2018-06-14T08:34:39.711Z,43.9
2018-06-14T08:35:49.657Z,44.12
2018-06-14T08:36:59.344Z,44.02
2018-06-14T08:38:08.836Z,43.92
2018-06-14T08:39:17.995Z,43.9
2018-06-14T08:40:27.424Z,43.92
2018-06-14T08:41:36.849Z,43.9
2018-06-14T08:42:46.279Z,43.8
2018-06-14T08:43:55.447Z,43.99
2018-06-14T08:45:04.864Z,43.82
2018-06-14T08:46:14.294Z,43.8
2018-06-14T08:47:24.235Z,43.92
2018-06-14T08:48:33.139Z,43.8
2018-06-14T08:49:42.588Z,43.82
2018-06-14T08:50:51.785Z,43.92
2018-06-14T08:52:01.228Z,43.8
2018-06-14T08:53:10.389Z,43.8
2018-06-14T08:54:19.563Z,43.9
2018-06-14T08:55:28.771Z,44.19
2018-06-14T08:56:38.261Z,44.38
2018-06-14T08:57:47.456Z,44.38
2018-06-14T08:58:56.882Z,43.99
2018-06-14T09:00:06.089Z,44.38
2018-06-14T09:01:15.615Z,44.4
2018-06-14T09:02:25.395Z,44.02
2018-06-14T09:03:34.862Z,44.19
2018-06-14T09:04:44.372Z,44.29
2018-06-14T09:05:53.644Z,44.48
2018-06-14T09:07:03.265Z,44.19
2018-06-14T09:08:12.775Z,44.48
2018-06-14T09:09:22.265Z,44.19
2018-06-14T09:10:31.748Z,44.5
2018-06-14T09:11:41.483Z,44.29
2018-06-14T09:12:51.153Z,44.5
2018-06-14T09:14:01.105Z,43.82
2018-06-14T09:15:11.579Z,44.38
2018-06-14T09:16:21.247Z,44.5
2018-06-14T09:17:30.412Z,44.21
2018-06-14T09:18:39.833Z,44.02
2018-06-14T09:19:49.526Z,44.31
2018-06-14T09:20:59.490Z,44.5
2018-06-14T09:22:08.688Z,44.38
2018-06-14T09:23:18.127Z,44.19
2018-06-14T09:24:27.800Z,44.21
2018-06-14T09:25:37.213Z,44.31
2018-06-14T09:26:46.650Z,44.31
2018-06-14T09:27:56.347Z,44.31
2018-06-14T09:29:06.289Z,44.21
2018-06-14T09:30:15.998Z,44.31
2018-06-14T09:31:25.676Z,44.31
2018-06-14T09:32:35.377Z,44.48
2018-06-14T09:33:44.811Z,44.29
2018-06-14T09:34:53.992Z,44.31
2018-06-14T09:36:03.143Z,44.31
2018-06-14T09:37:12.835Z,44.29
2018-06-14T09:38:21.791Z,44.21
2018-06-14T09:39:31.208Z,44.02
2018-06-14T09:40:40.368Z,44.21
2018-06-14T09:41:50.064Z,44.02
2018-06-14T09:42:59.985Z,44.29
2018-06-14T09:44:09.980Z,44.19
2018-06-14T09:45:19.146Z,44.31
2018-06-14T09:46:28.064Z,44.29
2018-06-14T09:47:37.475Z,44.31
2018-06-14T09:48:46.668Z,44.31
2018-06-14T09:49:56.340Z,44.4
2018-06-14T09:51:05.503Z,44.31
2018-06-14T09:52:14.928Z,44.4
2018-06-14T09:53:24.621Z,44.31
2018-06-14T09:54:34.310Z,44.12
2018-06-14T09:55:43.509Z,44.31
2018-06-14T09:56:53.197Z,44.12
2018-06-14T09:58:02.883Z,44.31
2018-06-14T09:59:12.052Z,44.12
2018-06-14T10:00:21.512Z,44.31
2018-06-14T10:01:31.099Z,44.21
2018-06-14T10:02:40.284Z,44.21
2018-06-14T10:03:49.708Z,44.31
2018-06-14T10:04:58.860Z,44.31
2018-06-14T10:06:09.106Z,44.21
2018-06-14T10:07:18.890Z,44.12
2018-06-14T10:08:27.805Z,44.21
2018-06-14T10:09:37.486Z,44.31
2018-06-14T10:10:46.921Z,44.4
2018-06-14T10:11:56.593Z,44.21
2018-06-14T10:13:06.300Z,44.21
2018-06-14T10:14:15.720Z,44.21
2018-06-14T10:15:25.143Z,44.31
2018-06-14T10:16:34.831Z,44.19
2018-06-14T10:17:44.763Z,44.21
2018-06-14T10:18:53.675Z,44.21
2018-06-14T10:20:03.132Z,44.21
2018-06-14T10:21:12.568Z,44.21
2018-06-14T10:22:21.506Z,44.12
2018-06-14T10:23:31.189Z,44.19
2018-06-14T10:24:40.364Z,44.12
2018-06-14T10:25:50.060Z,44.21
2018-06-14T10:26:58.981Z,44.09
2018-06-14T10:28:07.900Z,44.12
2018-06-14T10:29:17.512Z,44.12
2018-06-14T10:30:27.297Z,44.4
2018-06-14T10:31:36.724Z,44.4
2018-06-14T10:32:46.153Z,44.31
2018-06-14T10:33:55.422Z,44.31
2018-06-14T10:35:04.347Z,44.12
2018-06-14T10:36:13.269Z,44.12
2018-06-14T10:37:22.892Z,44.5
2018-06-14T10:38:32.417Z,44.4
2018-06-14T10:39:42.178Z,44.21
2018-06-14T10:40:51.623Z,44.31
2018-06-14T10:42:00.810Z,44.31
2018-06-14T10:43:10.525Z,44.29
2018-06-14T10:44:19.721Z,44.31
2018-06-14T10:45:29.679Z,44.5
2018-06-14T10:46:39.106Z,43.99
2018-06-14T10:47:48.788Z,44.12
2018-06-14T10:48:58.219Z,44.5
2018-06-14T10:50:07.389Z,44.09
2018-06-14T10:51:16.593Z,44.4
2018-06-14T10:52:26.394Z,44.02
2018-06-14T10:53:35.957Z,44.29
2018-06-14T10:54:45.391Z,44.5
2018-06-14T10:55:54.813Z,44.29
2018-06-14T10:57:03.979Z,44.21
2018-06-14T10:58:13.434Z,44.12
2018-06-14T10:59:22.870Z,44.12
2018-06-14T11:00:32.286Z,44.5
2018-06-14T11:01:42.283Z,44.02
2018-06-14T11:02:51.462Z,44.5
2018-06-14T11:04:01.156Z,44.12
2018-06-14T11:05:10.581Z,44.02
2018-06-14T11:06:19.255Z,44.21
2018-06-14T11:07:28.683Z,44.12
2018-06-14T11:08:38.111Z,44.12
2018-06-14T11:09:47.538Z,44.12
2018-06-14T11:10:57.006Z,44.5
2018-06-14T11:12:06.441Z,44.09
2018-06-14T11:13:15.947Z,44.02
2018-06-14T11:14:25.725Z,44.21
2018-06-14T11:15:34.970Z,44.12
2018-06-14T11:16:44.920Z,44.21
2018-06-14T11:17:54.394Z,44.31
2018-06-14T11:19:03.560Z,44.12
2018-06-14T11:20:13.035Z,44.12
2018-06-14T11:21:22.861Z,44.21
2018-06-14T11:22:32.288Z,44.12
2018-06-14T11:23:41.716Z,44.12
2018-06-14T11:24:50.875Z,44.31
2018-06-14T11:26:00.057Z,44.21
2018-06-14T11:27:10.009Z,44.19
2018-06-14T11:28:18.916Z,44.12
2018-06-14T11:29:28.592Z,44.12
2018-06-14T11:30:38.026Z,44.21
2018-06-14T11:31:47.462Z,44.21
2018-06-14T11:32:56.637Z,44.19
2018-06-14T11:34:05.800Z,44.21
2018-06-14T11:35:15.808Z,44.21
2018-06-14T11:36:25.741Z,44.12
2018-06-14T11:37:35.436Z,44.21
2018-06-14T11:38:45.130Z,44.21
2018-06-14T11:39:54.811Z,44.21
2018-06-14T11:41:03.713Z,44.09
2018-06-14T11:42:13.143Z,44.21
2018-06-14T11:43:22.570Z,44.21
2018-06-14T11:44:31.991Z,44.12
2018-06-14T11:45:41.427Z,44.12
2018-06-14T11:46:51.187Z,44.21
2018-06-14T11:48:00.346Z,44.21
2018-06-14T11:49:10.053Z,44.31
2018-06-14T11:50:19.497Z,44.02
2018-06-14T11:51:29.487Z,44.31
2018-06-14T11:52:39.184Z,44.21
2018-06-14T11:53:48.885Z,44.21
2018-06-14T11:54:58.325Z,44.21
2018-06-14T11:56:07.760Z,44.12
2018-06-14T11:57:16.924Z,44.12
2018-06-14T11:58:26.102Z,44.21
2018-06-14T11:59:35.842Z,44.4
2018-06-14T12:00:45.728Z,44.21
2018-06-14T12:01:55.672Z,44.21
2018-06-14T12:03:05.129Z,44.21
2018-06-14T12:04:14.306Z,44.12
2018-06-14T12:05:24.242Z,44.12
2018-06-14T12:06:33.414Z,44.12
2018-06-14T12:07:42.330Z,44.21
2018-06-14T12:08:51.513Z,44.12
2018-06-14T12:10:00.953Z,44.12
2018-06-14T12:11:10.408Z,44.12
2018-06-14T12:12:19.847Z,44.12
2018-06-14T12:13:29.316Z,44.12
2018-06-14T12:14:38.503Z,44.21
2018-06-14T12:15:47.667Z,44.12
2018-06-14T12:16:57.368Z,44.12
2018-06-14T12:18:06.575Z,44.12
2018-06-14T12:19:15.998Z,44.31
2018-06-14T12:20:25.865Z,44.21
2018-06-14T12:21:35.054Z,44.31
2018-06-14T12:22:44.231Z,44.31
2018-06-14T12:23:53.661Z,44.21
2018-06-14T12:25:03.596Z,44.21
2018-06-14T12:26:13.024Z,44.31
2018-06-14T12:27:22.736Z,44.4
2018-06-14T12:28:32.160Z,44.79
2018-06-14T12:29:41.356Z,44.31
2018-06-14T12:30:50.531Z,44.4
2018-06-14T12:32:00.233Z,44.21
2018-06-14T12:33:09.947Z,44.21
2018-06-14T12:34:19.360Z,44.12
2018-06-14T12:35:28.526Z,44.21
2018-06-14T12:36:38.463Z,44.12
2018-06-14T12:37:48.011Z,44.21
2018-06-14T12:38:57.504Z,44.21
2018-06-14T12:40:07.215Z,44.21
2018-06-14T12:41:16.641Z,44.31
2018-06-14T12:42:26.070Z,44.21
2018-06-14T12:43:35.542Z,44.21
2018-06-14T12:44:44.976Z,44.21
2018-06-14T12:45:54.917Z,44.21
2018-06-14T12:47:04.084Z,44.12
2018-06-14T12:48:13.253Z,44.21
2018-06-14T12:49:22.439Z,44.21
2018-06-14T12:50:32.131Z,44.21
2018-06-14T12:51:41.826Z,44.21
2018-06-14T12:52:50.740Z,44.02
2018-06-14T12:53:59.651Z,44.12
2018-06-14T12:55:09.331Z,44.31
2018-06-14T12:56:18.505Z,44.4
2018-06-14T12:57:27.936Z,44.31
2018-06-14T12:58:37.735Z,44.12
2018-06-14T12:59:47.428Z,44.21
2018-06-14T13:00:56.915Z,44.4
2018-06-14T13:02:06.851Z,44.21
2018-06-14T13:03:16.277Z,44.31
2018-06-14T13:04:25.713Z,44.02
2018-06-14T13:05:35.675Z,44.21
2018-06-14T13:06:45.372Z,44.21
2018-06-14T13:07:55.058Z,44.21
2018-06-14T13:09:03.979Z,44.21
2018-06-14T13:10:13.155Z,44.31
2018-06-14T13:11:22.319Z,44.21
2018-06-14T13:12:31.747Z,44.12
2018-06-14T13:13:40.922Z,44.4
2018-06-14T13:14:50.097Z,44.4
2018-06-14T13:15:59.523Z,44.21
2018-06-14T13:17:08.699Z,44.31
2018-06-14T13:18:18.402Z,44.21
2018-06-14T13:19:27.573Z,44.12
2018-06-14T13:20:37.257Z,44.21
2018-06-14T13:21:46.432Z,44.21
2018-06-14T13:22:56.133Z,44.21
2018-06-14T13:24:05.825Z,44.31
2018-06-14T13:25:15.451Z,44.31
2018-06-14T13:26:24.840Z,44.31
2018-06-14T13:27:34.824Z,44.21
2018-06-14T13:28:44.510Z,44.31
2018-06-14T13:29:53.938Z,44.21
2018-06-14T13:31:04.008Z,44.31
2018-06-14T13:32:13.953Z,44.21
2018-06-14T13:33:23.182Z,44.21
2018-06-14T13:34:32.366Z,44.31
2018-06-14T13:35:41.268Z,44.31
2018-06-14T13:36:50.693Z,44.5
2018-06-14T13:38:00.375Z,44.4
2018-06-14T13:39:09.545Z,44.31
2018-06-14T13:40:18.707Z,44.4
2018-06-14T13:41:28.156Z,44.31
2018-06-14T13:42:37.612Z,44.31
2018-06-14T13:43:46.872Z,44.31
2018-06-14T13:44:56.305Z,44.21
2018-06-14T13:46:06.007Z,44.4
2018-06-14T13:47:15.699Z,44.31
2018-06-14T13:48:24.908Z,44.4
2018-06-14T13:49:34.591Z,44.4
2018-06-14T13:50:44.544Z,44.4
2018-06-14T13:51:53.966Z,44.4
2018-06-14T13:53:03.395Z,44.4
2018-06-14T13:54:13.090Z,44.4
2018-06-14T13:55:22.938Z,44.4
2018-06-14T13:56:32.712Z,44.4
2018-06-14T13:57:42.453Z,44.4
2018-06-14T13:58:52.317Z,44.4
2018-06-14T14:00:01.756Z,44.4
2018-06-14T14:01:11.769Z,44.5
2018-06-14T14:02:21.626Z,44.4
2018-06-14T14:03:31.402Z,44.21
2018-06-14T14:04:40.900Z,44.4
2018-06-14T14:05:50.625Z,44.5
2018-06-14T14:07:00.063Z,44.4
2018-06-14T14:08:08.967Z,44.4
2018-06-14T14:09:18.911Z,44.31
2018-06-14T14:10:28.089Z,44.4
2018-06-14T14:11:37.512Z,44.31
2018-06-14T14:12:46.936Z,44.31
2018-06-14T14:13:56.369Z,44.6
2018-06-14T14:15:05.288Z,44.5
2018-06-14T14:16:14.720Z,44.4
2018-06-14T14:17:24.143Z,44.21
2018-06-14T14:18:33.570Z,44.4
2018-06-14T14:19:43.001Z,44.21
2018-06-14T14:20:52.170Z,44.21
2018-06-14T14:22:01.596Z,44.31
2018-06-14T14:23:10.857Z,44.31
2018-06-14T14:24:20.528Z,44.6
2018-06-14T14:25:29.958Z,44.31
2018-06-14T14:26:39.134Z,44.31
2018-06-14T14:27:48.807Z,44.6
2018-06-14T14:28:57.982Z,44.31
2018-06-14T14:30:07.418Z,44.4
2018-06-14T14:31:17.418Z,44.4
2018-06-14T14:32:26.584Z,44.7
2018-06-14T14:33:36.284Z,44.4
2018-06-14T14:34:46.261Z,44.6
2018-06-14T14:35:55.961Z,44.79
2018-06-14T14:37:05.783Z,44.79
2018-06-14T14:38:15.578Z,44.79
2018-06-14T14:39:24.760Z,44.6
2018-06-14T14:40:33.943Z,44.7
2018-06-14T14:41:43.109Z,44.7
2018-06-14T14:42:52.288Z,44.6
2018-06-14T14:44:02.018Z,44.6
2018-06-14T14:45:11.450Z,44.79
2018-06-14T14:46:20.879Z,44.89
2018-06-14T14:47:30.808Z,44.89
2018-06-14T14:48:40.298Z,44.89
2018-06-14T14:49:50.033Z,44.89
2018-06-14T14:50:59.750Z,45.08
2018-06-14T14:52:08.923Z,44.89
2018-06-14T14:53:17.864Z,44.98
2018-06-14T14:54:26.497Z,44.98
2018-06-14T14:55:36.189Z,45.08
2018-06-14T14:56:46.141Z,45.08
2018-06-14T14:57:55.310Z,44.89
2018-06-14T14:59:04.724Z,44.98
2018-06-14T15:00:14.412Z,45.08